Jia Sheng Shan — VRIK4 — position and weather

sailwx.info

Track history (hours):
 
Tides and Currents Weather Stations Pressure Air Temp Water Temp Dewpoint Dewpoint Depression Visibility Wind Speed Wind Dir Waves Ship Positions

Jia Sheng Shan

Last reported at 2018-Jun-17 02:06 UTC. Time now 2018-Jun-19 02:32 UTC.
Position N 31°05' E 122°30'.

Length 189 m; draft 8.7 m.

Type: Cargo ship. MMSI: 477514400.

Date/timePositionNaut miles runAvg speedWind from/ knotsBaromVisibWave heightAir tempDewpointWater temp
2018-Jun-17 02:06N 31°05' E 122°30'4 6.1
2018-Jun-17 01:28N 31°06' E 122°26'510.2
2018-Jun-17 00:56N 31°06' E 122°20'512.6
2018-Jun-17 00:30N 31°09' E 122°14'714.7
2018-Jun-17 00:00N 31°13' E 122°07'814.6
2018-Jun-16 23:29N 31°15' E 121°59'1014.9
2018-Jun-16 22:50N 31°18' E 121°48'  
2018-Jun-13 03:51N 31°15' E 121°47'710.5
2018-Jun-13 03:09N 31°10' E 121°53'211.3
2018-Jun-13 03:00N 31°09' E 121°54'5 9.8
2018-Jun-13 02:30N 31°06' E 121°59'5 9.4
2018-Jun-13 02:00N 31°04' E 122°04'612.0
2018-Jun-13 01:30N 31°03' E 122°11'5 9.5
2018-Jun-13 01:00N 31°03' E 122°17'611.2
2018-Jun-13 00:30N 31°02' E 122°23'4 8.3
2018-Jun-13 00:00N 31°01' E 122°28'611.5
2018-Jun-12 23:30N 31°02' E 122°34'3 5.2
2018-Jun-12 22:57N 31°04' E 122°37'0 0.2
2018-Jun-12 22:30N 31°04' E 122°37'0 0.0
2018-Jun-12 21:21N 31°04' E 122°37'0 0.0
2018-Jun-12 20:51N 31°04' E 122°37'0 0.0
2018-Jun-12 20:21N 31°04' E 122°37'0 0.1
2018-Jun-12 19:57N 31°04' E 122°37'0 0.1
2018-Jun-12 19:30N 31°04' E 122°37'1 2.0
2018-Jun-12 19:00N 31°04' E 122°36'4 8.0
2018-Jun-12 18:30N 31°06' E 122°32'611.1
2018-Jun-12 18:00N 31°11' E 122°32'612.0
2018-Jun-12 17:30N 31°17' E 122°32'612.7
2018-Jun-12 17:00N 31°24' E 122°32'611.9
2018-Jun-12 16:30N 31°30' E 122°32'611.2
2018-Jun-12 16:00N 31°35' E 122°32'711.0
2018-Jun-12 15:23N 31°42' E 122°32'811.3
2018-Jun-12 14:43N 31°49' E 122°32'911.2
2018-Jun-12 13:52N 31°59' E 122°34'511.2
2018-Jun-12 13:24N 32°04' E 122°33'511.3
2018-Jun-12 12:57N 32°09' E 122°34'33612.6
2018-Jun-11 10:16N 37°45' E 122°60'413.6
2018-Jun-11 09:59N 37°48' E 122°57'613.0
2018-Jun-11 09:30N 37°52' E 122°51'4512.2
2018-Jun-11 05:47N 38°26' E 122°13'412.5
2018-Jun-11 05:27N 38°29' E 122°09'612.3
2018-Jun-11 05:00N 38°33' E 122°04'612.3
2018-Jun-11 04:30N 38°38' E 121°59'612.1
2018-Jun-11 04:00N 38°42' E 121°54'611.7
2018-Jun-11 03:30N 38°46' E 121°49'511.2
2018-Jun-11 03:00N 38°51' E 121°45'9 9.4
2018-Jun-11 02:03N 39°00' E 121°46'0 0.0
2018-Jun-09 04:44N 39°00' E 121°46'8 8.5
2018-Jun-09 03:46N 38°52' E 121°47'2 7.1
2018-Jun-09 03:30N 38°51' E 121°49'7 9.9
2018-Jun-09 02:50N 38°51' E 121°57'3 8.6
2018-Jun-09 02:30N 38°52' E 122°01'1 0.6
2018-Jun-09 01:36N 38°52' E 122°01'0 0.0
2018-Jun-08 19:30N 38°52' E 122°01'0 0.2
2018-Jun-08 19:00N 38°52' E 122°02'0 0.1
2018-Jun-08 18:30N 38°52' E 122°02'0 0.0
2018-Jun-08 18:00N 38°52' E 122°02'0 0.0
2018-Jun-08 17:18N 38°52' E 122°02'0 0.0
2018-Jun-08 16:51N 38°52' E 122°02'0 0.1
2018-Jun-08 16:30N 38°52' E 122°02'0 0.5
2018-Jun-08 16:00N 38°52' E 122°02'3 6.5
2018-Jun-08 15:30N 38°50' E 122°06'612.9
2018-Jun-08 15:00N 38°46' E 122°12'612.8
2018-Jun-08 14:30N 38°42' E 122°18'713.1
2018-Jun-08 14:00N 38°38' E 122°25'713.1
2018-Jun-08 13:30N 38°34' E 122°31'613.0
2018-Jun-08 13:00N 38°30' E 122°38'612.7
2018-Jun-08 12:30N 38°26' E 122°44'612.7
2018-Jun-08 12:00N 38°22' E 122°50'612.5
2018-Jun-08 11:30N 38°18' E 122°56'712.5
2018-Jun-08 10:58N 38°13' E 123°03'1312.5
2018-Jun-08 09:55N 38°07' E 123°18'  
Track history (hours):
 
Tides and Currents Weather Stations Pressure Air Temp Water Temp Dewpoint Dewpoint Depression Visibility Wind Speed Wind Dir Waves Ship Positions

Jia Sheng Shan

Last reported at 2018-Jun-17 02:06 UTC. Time now 2018-Jun-19 02:32 UTC.
Position N 31°05' E 122°30'.

Length 189 m; draft 8.7 m.

Type: Cargo ship. MMSI: 477514400.

Date/timePositionNaut miles runAvg speedWind from/ knotsBaromVisibWave heightAir tempDewpointWater temp
2018-Jun-17 02:06N 31°05' E 122°30'4 6.1
2018-Jun-17 01:28N 31°06' E 122°26'510.2
2018-Jun-17 00:56N 31°06' E 122°20'512.6
2018-Jun-17 00:30N 31°09' E 122°14'714.7
2018-Jun-17 00:00N 31°13' E 122°07'814.6
2018-Jun-16 23:29N 31°15' E 121°59'1014.9
2018-Jun-16 22:50N 31°18' E 121°48'  
2018-Jun-13 03:51N 31°15' E 121°47'710.5
2018-Jun-13 03:09N 31°10' E 121°53'211.3
2018-Jun-13 03:00N 31°09' E 121°54'5 9.8
2018-Jun-13 02:30N 31°06' E 121°59'5 9.4
2018-Jun-13 02:00N 31°04' E 122°04'612.0
2018-Jun-13 01:30N 31°03' E 122°11'5 9.5
2018-Jun-13 01:00N 31°03' E 122°17'611.2
2018-Jun-13 00:30N 31°02' E 122°23'4 8.3
2018-Jun-13 00:00N 31°01' E 122°28'611.5
2018-Jun-12 23:30N 31°02' E 122°34'3 5.2
2018-Jun-12 22:57N 31°04' E 122°37'0 0.2
2018-Jun-12 22:30N 31°04' E 122°37'0 0.0
2018-Jun-12 21:21N 31°04' E 122°37'0 0.0
2018-Jun-12 20:51N 31°04' E 122°37'0 0.0
2018-Jun-12 20:21N 31°04' E 122°37'0 0.1
2018-Jun-12 19:57N 31°04' E 122°37'0 0.1
2018-Jun-12 19:30N 31°04' E 122°37'1 2.0
2018-Jun-12 19:00N 31°04' E 122°36'4 8.0
2018-Jun-12 18:30N 31°06' E 122°32'611.1
2018-Jun-12 18:00N 31°11' E 122°32'612.0
2018-Jun-12 17:30N 31°17' E 122°32'612.7
2018-Jun-12 17:00N 31°24' E 122°32'611.9
2018-Jun-12 16:30N 31°30' E 122°32'611.2
2018-Jun-12 16:00N 31°35' E 122°32'711.0
2018-Jun-12 15:23N 31°42' E 122°32'811.3
2018-Jun-12 14:43N 31°49' E 122°32'911.2
2018-Jun-12 13:52N 31°59' E 122°34'511.2
2018-Jun-12 13:24N 32°04' E 122°33'511.3
2018-Jun-12 12:57N 32°09' E 122°34'33612.6
2018-Jun-11 10:16N 37°45' E 122°60'413.6
2018-Jun-11 09:59N 37°48' E 122°57'613.0
2018-Jun-11 09:30N 37°52' E 122°51'4512.2
2018-Jun-11 05:47N 38°26' E 122°13'412.5
2018-Jun-11 05:27N 38°29' E 122°09'612.3
2018-Jun-11 05:00N 38°33' E 122°04'612.3
2018-Jun-11 04:30N 38°38' E 121°59'612.1
2018-Jun-11 04:00N 38°42' E 121°54'611.7
2018-Jun-11 03:30N 38°46' E 121°49'511.2
2018-Jun-11 03:00N 38°51' E 121°45'9 9.4
2018-Jun-11 02:03N 39°00' E 121°46'0 0.0
2018-Jun-09 04:44N 39°00' E 121°46'8 8.5
2018-Jun-09 03:46N 38°52' E 121°47'2 7.1
2018-Jun-09 03:30N 38°51' E 121°49'7 9.9
2018-Jun-09 02:50N 38°51' E 121°57'3 8.6
2018-Jun-09 02:30N 38°52' E 122°01'1 0.6
2018-Jun-09 01:36N 38°52' E 122°01'0 0.0
2018-Jun-08 19:30N 38°52' E 122°01'0 0.2
2018-Jun-08 19:00N 38°52' E 122°02'0 0.1
2018-Jun-08 18:30N 38°52' E 122°02'0 0.0
2018-Jun-08 18:00N 38°52' E 122°02'0 0.0
2018-Jun-08 17:18N 38°52' E 122°02'0 0.0
2018-Jun-08 16:51N 38°52' E 122°02'0 0.1
2018-Jun-08 16:30N 38°52' E 122°02'0 0.5
2018-Jun-08 16:00N 38°52' E 122°02'3 6.5
2018-Jun-08 15:30N 38°50' E 122°06'612.9
2018-Jun-08 15:00N 38°46' E 122°12'612.8
2018-Jun-08 14:30N 38°42' E 122°18'713.1
2018-Jun-08 14:00N 38°38' E 122°25'713.1
2018-Jun-08 13:30N 38°34' E 122°31'613.0
2018-Jun-08 13:00N 38°30' E 122°38'612.7
2018-Jun-08 12:30N 38°26' E 122°44'612.7
2018-Jun-08 12:00N 38°22' E 122°50'612.5
2018-Jun-08 11:30N 38°18' E 122°56'712.5
2018-Jun-08 10:58N 38°13' E 123°03'1312.5
2018-Jun-08 09:55N 38°07' E 123°18'  

Dump ship's entire track history